Alberta Amoretti — ITNR — position and weather

sailwx.info

Track history (hours):
 
Tides and Currents Weather Stations Pressure Air Temp Water Temp Dewpoint Dewpoint Depression Visibility Wind Speed Wind Dir Waves Ship Positions

Alberta Amoretti

Last reported at 2018-Feb-23 18:56 UTC. Time now 2018-Feb-24 02:46 UTC.
Position N 40°29' E 014°10'.

Length 176 m; draft 6.8 m.

Type: Tanker. MMSI: 247593000.

Date/timePositionNaut miles runAvg speedWind from/ knotsBaromVisibWave heightAir tempDewpointWater temp
2018-Feb-23 18:56N 40°29' E 014°10'612.6
2018-Feb-23 18:30N 40°34' E 014°09'612.7
2018-Feb-23 18:00N 40°40' E 014°12'712.9
2018-Feb-23 17:30N 40°46' E 014°16'3 0.7
2018-Feb-23 12:29N 40°49' E 014°18'0 0.0
2018-Feb-23 11:59N 40°49' E 014°18'0 0.0
2018-Feb-23 11:29N 40°49' E 014°18'0 0.0
2018-Feb-23 10:59N 40°49' E 014°18'0 0.1
2018-Feb-23 10:29N 40°49' E 014°18'0 0.2
2018-Feb-23 09:56N 40°49' E 014°18'0 0.0
2018-Feb-23 09:23N 40°49' E 014°18'0 0.0
2018-Feb-23 08:53N 40°49' E 014°18'0 0.0
2018-Feb-23 07:32N 40°49' E 014°18'0 0.1
2018-Feb-23 07:23N 40°49' E 014°18'0 0.0
2018-Feb-23 06:59N 40°49' E 014°18'0 0.0
2018-Feb-23 06:23N 40°49' E 014°18'0 0.0
2018-Feb-23 05:59N 40°49' E 014°18'0 0.0
2018-Feb-23 05:26N 40°49' E 014°18'0 0.1
2018-Feb-23 04:56N 40°49' E 014°18'0 0.1
2018-Feb-23 04:26N 40°49' E 014°18'0 0.0
2018-Feb-23 03:59N 40°49' E 014°18'0 0.1
2018-Feb-23 03:29N 40°49' E 014°18'0 0.0
2018-Feb-23 02:59N 40°49' E 014°18'0 0.0
2018-Feb-23 02:29N 40°49' E 014°18'0 0.1
2018-Feb-23 01:59N 40°49' E 014°18'0 0.1
2018-Feb-23 01:29N 40°49' E 014°18'0 0.1
2018-Feb-23 00:59N 40°49' E 014°18'0 0.1
2018-Feb-23 00:28N 40°49' E 014°18'0 0.0
2018-Feb-22 23:58N 40°49' E 014°18'0 0.1
2018-Feb-22 23:28N 40°49' E 014°18'0 0.0
2018-Feb-22 22:58N 40°49' E 014°18'0 0.0
2018-Feb-22 22:28N 40°49' E 014°18'0 0.0
2018-Feb-22 21:58N 40°49' E 014°18'0 0.0
2018-Feb-22 21:22N 40°49' E 014°18'0 0.1
2018-Feb-22 20:58N 40°49' E 014°18'0 0.0
2018-Feb-22 20:22N 40°49' E 014°18'0 0.0
2018-Feb-22 19:58N 40°49' E 014°18'0 0.0
2018-Feb-22 19:13N 40°49' E 014°18'0 0.0
2018-Feb-22 18:58N 40°49' E 014°18'0 0.1
2018-Feb-22 18:28N 40°49' E 014°18'0 0.0
2018-Feb-22 17:58N 40°49' E 014°18'0 0.0
2018-Feb-22 17:25N 40°49' E 014°18'1 2.0
2018-Feb-22 17:00N 40°48' E 014°17'611.8
2018-Feb-22 16:30N 40°45' E 014°11'714.4
2018-Feb-22 16:00N 40°39' E 014°04'612.6
2018-Feb-22 15:30N 40°39' E 013°56'611.8
2018-Feb-22 15:00N 40°40' E 013°49'35 2.9
2018-Feb-22 02:56N 41°13' E 013°34'155 3.8
2018-Feb-20 09:31N 38°38' E 013°29'013.1
2018-Feb-20 09:30N 38°38' E 013°29'613.0
2018-Feb-20 09:00N 38°31' E 013°28'612.9
2018-Feb-20 08:30N 38°25' E 013°28'713.1
2018-Feb-20 08:00N 38°18' E 013°27'713.3
2018-Feb-20 07:30N 38°12' E 013°27'510.6
2018-Feb-20 07:00N 38°07' E 013°25'0 0.3
2018-Feb-20 06:28N 38°06' E 013°25'0 0.0
2018-Feb-20 05:58N 38°06' E 013°25'0 0.0
2018-Feb-20 05:28N 38°06' E 013°25'0 0.0
2018-Feb-20 04:58N 38°06' E 013°25'0 0.0
2018-Feb-20 04:28N 38°06' E 013°25'0 0.0
2018-Feb-20 03:58N 38°06' E 013°25'0 0.0
2018-Feb-20 03:28N 38°06' E 013°25'0 0.0
2018-Feb-20 02:58N 38°06' E 013°25'0 0.0
2018-Feb-20 02:28N 38°06' E 013°25'0 0.0
2018-Feb-20 01:58N 38°06' E 013°25'0 0.0
2018-Feb-20 01:28N 38°06' E 013°25'0 0.0
2018-Feb-20 00:58N 38°06' E 013°25'0 0.0
2018-Feb-20 00:28N 38°06' E 013°25'0 0.0
2018-Feb-19 23:58N 38°06' E 013°25'0 0.0
2018-Feb-19 23:28N 38°06' E 013°25'0 0.0
2018-Feb-19 22:58N 38°06' E 013°25'0 0.0
2018-Feb-19 22:28N 38°06' E 013°25'0 0.0
2018-Feb-19 21:58N 38°06' E 013°25'0 0.0
2018-Feb-19 21:25N 38°06' E 013°25'0 0.0
2018-Feb-19 20:58N 38°06' E 013°25'0 0.0
2018-Feb-19 20:28N 38°06' E 013°25'0 0.0
2018-Feb-19 19:58N 38°06' E 013°25'0 0.0
2018-Feb-19 19:28N 38°06' E 013°25'0 0.0
2018-Feb-19 18:58N 38°06' E 013°25'0 0.0
2018-Feb-19 18:28N 38°06' E 013°25'0 0.0
2018-Feb-19 17:58N 38°06' E 013°25'0 0.0
2018-Feb-19 17:28N 38°06' E 013°25'0 0.0
2018-Feb-19 16:58N 38°06' E 013°25'0 0.0
2018-Feb-19 16:28N 38°06' E 013°25'0 0.0
2018-Feb-19 15:58N 38°06' E 013°25'0 0.0
2018-Feb-19 15:28N 38°06' E 013°25'0 0.0
2018-Feb-19 14:58N 38°06' E 013°25'0 0.0
2018-Feb-19 14:28N 38°06' E 013°25'0 0.0
2018-Feb-19 13:58N 38°06' E 013°25'0 0.0
2018-Feb-19 13:28N 38°06' E 013°25'0 0.0
2018-Feb-19 13:01N 38°06' E 013°25'0 0.0
2018-Feb-19 12:31N 38°06' E 013°25'0 0.0
2018-Feb-19 12:00N 38°06' E 013°25'0 0.0
2018-Feb-19 11:30N 38°06' E 013°25'0 0.0
2018-Feb-19 11:00N 38°06' E 013°25'0 0.0
2018-Feb-19 10:30N 38°06' E 013°25'0 0.0
2018-Feb-19 10:00N 38°06' E 013°25'0 0.0
2018-Feb-19 09:30N 38°06' E 013°25'0 0.0
2018-Feb-19 09:00N 38°06' E 013°25'0 0.0
2018-Feb-19 08:24N 38°06' E 013°25'0 0.0
2018-Feb-19 08:00N 38°06' E 013°25'0 0.0
2018-Feb-19 07:30N 38°06' E 013°25'0 0.0
2018-Feb-19 07:01N 38°06' E 013°25'0 0.9
2018-Feb-19 06:30N 38°07' E 013°25'1 1.9
2018-Feb-19 06:00N 38°07' E 013°26'0 0.1
2018-Feb-19 05:28N 38°07' E 013°26'0 0.0
2018-Feb-19 04:58N 38°07' E 013°26'0 0.0
2018-Feb-19 04:28N 38°07' E 013°26'0 0.0
2018-Feb-19 03:58N 38°07' E 013°26'0 0.1
2018-Feb-19 03:28N 38°07' E 013°26'0 0.0
2018-Feb-19 02:58N 38°07' E 013°26'0 0.0
2018-Feb-19 02:28N 38°07' E 013°26'0 0.1
2018-Feb-19 01:58N 38°07' E 013°26'0 0.1
2018-Feb-19 01:28N 38°07' E 013°26'0 0.0
2018-Feb-19 00:58N 38°07' E 013°26'0 0.0
2018-Feb-19 00:28N 38°07' E 013°26'0 0.0
2018-Feb-18 23:58N 38°07' E 013°26'0 0.0
2018-Feb-18 23:28N 38°07' E 013°26'0 0.0
2018-Feb-18 22:58N 38°07' E 013°26'0 0.0
2018-Feb-18 22:28N 38°07' E 013°26'0 0.0
2018-Feb-18 21:58N 38°07' E 013°26'0 0.0
2018-Feb-18 21:28N 38°07' E 013°26'0 0.0
2018-Feb-18 20:58N 38°07' E 013°26'0 0.0
2018-Feb-18 20:28N 38°07' E 013°26'0 0.0
2018-Feb-18 19:58N 38°07' E 013°26'0 0.1
2018-Feb-18 19:28N 38°07' E 013°26'0 0.0
2018-Feb-18 18:58N 38°07' E 013°26'0 0.0
2018-Feb-18 18:28N 38°07' E 013°26'0 0.0
2018-Feb-18 17:58N 38°07' E 013°26'0 0.0
2018-Feb-18 17:28N 38°07' E 013°26'0 0.0
2018-Feb-18 16:58N 38°07' E 013°26'0 0.0
2018-Feb-18 16:28N 38°07' E 013°26'0 0.1
2018-Feb-18 15:52N 38°07' E 013°26'0 0.0
2018-Feb-18 15:28N 38°07' E 013°26'0 0.0
2018-Feb-18 14:58N 38°07' E 013°26'0 0.1
2018-Feb-18 14:28N 38°07' E 013°26'0 0.1
2018-Feb-18 13:58N 38°07' E 013°26'0 0.1
2018-Feb-18 13:28N 38°07' E 013°26'0 0.0
2018-Feb-18 12:58N 38°07' E 013°26'0 0.0
2018-Feb-18 12:28N 38°07' E 013°26'0 0.0
2018-Feb-18 11:58N 38°07' E 013°26'0 0.0
2018-Feb-18 11:28N 38°07' E 013°26'0 0.0
2018-Feb-18 10:58N 38°07' E 013°26'0 0.0
2018-Feb-18 10:28N 38°07' E 013°26'0 0.0
2018-Feb-18 09:58N 38°07' E 013°26'0 0.0
2018-Feb-18 09:28N 38°07' E 013°26'0 0.0
2018-Feb-18 08:58N 38°07' E 013°26'0 0.1
2018-Feb-18 08:28N 38°07' E 013°26'0 0.0
2018-Feb-18 07:58N 38°07' E 013°26'0 0.0
2018-Feb-18 07:28N 38°07' E 013°26'0 0.0
2018-Feb-18 06:58N 38°07' E 013°26'0 0.0
2018-Feb-18 06:30N 38°07' E 013°26'0 0.0
2018-Feb-18 06:00N 38°07' E 013°26'1 1.1
2018-Feb-18 05:30N 38°07' E 013°27'510.6
2018-Feb-18 05:00N 38°09' E 013°33'612.8
2018-Feb-18 04:30N 38°10' E 013°41'612.8
2018-Feb-18 04:00N 38°11' E 013°49'713.5
2018-Feb-18 03:30N 38°12' E 013°58'713.5
2018-Feb-18 03:01N 38°13' E 014°06'713.1
2018-Feb-18 02:29N 38°13' E 014°15'2413.0
2018-Feb-18 00:37N 38°16' E 014°46'413.1
2018-Feb-18 00:19N 38°16' E 014°51'413.1
2018-Feb-18 00:00N 38°16' E 014°56'713.0
2018-Feb-17 23:29N 38°17' E 015°04'612.9
2018-Feb-17 23:00N 38°18' E 015°12'510.4
2018-Feb-17 22:30N 38°14' E 015°17'2 3.1
2018-Feb-17 21:56N 38°13' E 015°16'0 0.0
2018-Feb-17 21:26N 38°13' E 015°16'0 0.0
2018-Feb-17 20:56N 38°13' E 015°16'0 0.0
2018-Feb-17 20:26N 38°13' E 015°16'0 0.0
2018-Feb-17 19:56N 38°13' E 015°16'0 0.0
2018-Feb-17 19:26N 38°13' E 015°16'0 0.0
2018-Feb-17 18:56N 38°13' E 015°16'0 0.0
2018-Feb-17 18:26N 38°13' E 015°16'0 0.0
2018-Feb-17 17:56N 38°13' E 015°16'0 0.0
2018-Feb-17 17:26N 38°13' E 015°16'0 0.0
2018-Feb-17 16:56N 38°13' E 015°16'0 0.0
2018-Feb-17 16:26N 38°13' E 015°16'0 0.0
2018-Feb-17 15:56N 38°13' E 015°16'0 0.0
2018-Feb-17 15:26N 38°13' E 015°16'0 0.0
2018-Feb-17 14:56N 38°13' E 015°16'0 0.0
2018-Feb-17 14:26N 38°13' E 015°16'0 0.0
2018-Feb-17 13:56N 38°13' E 015°16'0 0.0
2018-Feb-17 13:26N 38°13' E 015°16'0 0.0
2018-Feb-17 12:56N 38°13' E 015°16'0 0.0
2018-Feb-17 12:26N 38°13' E 015°16'0 0.0
2018-Feb-17 11:56N 38°13' E 015°16'0 0.0
2018-Feb-17 11:26N 38°13' E 015°16'0 0.0
2018-Feb-17 10:56N 38°13' E 015°16'0 0.0
2018-Feb-17 10:26N 38°13' E 015°16'0 0.0
2018-Feb-17 09:55N 38°13' E 015°16'0 0.0
2018-Feb-17 09:25N 38°13' E 015°16'0 0.0
2018-Feb-17 08:55N 38°13' E 015°16'0 0.0
2018-Feb-17 08:25N 38°13' E 015°16'0 0.0
2018-Feb-17 07:55N 38°13' E 015°16'0 0.0
2018-Feb-17 07:25N 38°13' E 015°16'0 0.0
2018-Feb-17 06:55N 38°13' E 015°16'0 0.0
2018-Feb-17 06:25N 38°13' E 015°16'0 0.0
2018-Feb-17 05:55N 38°13' E 015°16'0 0.0
2018-Feb-17 05:25N 38°13' E 015°16'0 0.0
2018-Feb-17 04:55N 38°13' E 015°16'0 0.0
2018-Feb-17 04:25N 38°13' E 015°16'0 0.0
2018-Feb-17 03:55N 38°13' E 015°16'0 0.0
2018-Feb-17 03:25N 38°13' E 015°16'0 0.0
2018-Feb-17 02:55N 38°13' E 015°16'0 0.0
2018-Feb-17 02:25N 38°13' E 015°16'0 0.0
2018-Feb-17 01:55N 38°13' E 015°16'0 0.0
2018-Feb-17 01:25N 38°13' E 015°16'0 0.0
2018-Feb-17 00:55N 38°13' E 015°16'0 0.0
2018-Feb-17 00:25N 38°13' E 015°16'0 0.0
2018-Feb-16 23:55N 38°13' E 015°16'0 0.0
2018-Feb-16 23:25N 38°13' E 015°16'0 0.0
2018-Feb-16 22:55N 38°13' E 015°16'0 0.0
2018-Feb-16 22:25N 38°13' E 015°16'0 0.0
2018-Feb-16 21:55N 38°13' E 015°16'0 0.0
2018-Feb-16 21:25N 38°13' E 015°16'0 0.0
2018-Feb-16 20:55N 38°13' E 015°16'0 0.0
2018-Feb-16 20:25N 38°13' E 015°16'0 0.0
2018-Feb-16 19:55N 38°13' E 015°16'0 0.0
2018-Feb-16 19:25N 38°13' E 015°16'0 0.0
2018-Feb-16 18:55N 38°13' E 015°16'0 0.0
2018-Feb-16 18:25N 38°13' E 015°16'0 0.0
2018-Feb-16 17:55N 38°13' E 015°16'0 0.0
2018-Feb-16 17:25N 38°13' E 015°16'0 0.0
2018-Feb-16 16:55N 38°13' E 015°16'0 0.0
2018-Feb-16 16:25N 38°13' E 015°16'0 0.0
2018-Feb-16 15:55N 38°13' E 015°16'0 0.0
2018-Feb-16 15:25N 38°13' E 015°16'0 0.1
2018-Feb-16 15:00N 38°13' E 015°16'1 1.6
2018-Feb-16 14:27N 38°13' E 015°15'0 0.0
2018-Feb-16 13:57N 38°13' E 015°15'0 0.0
2018-Feb-16 13:27N 38°13' E 015°15'0 0.0
2018-Feb-16 12:57N 38°13' E 015°15'0 0.0
2018-Feb-16 12:27N 38°13' E 015°15'0 0.0
2018-Feb-16 11:57N 38°13' E 015°15'0 0.1
2018-Feb-16 11:27N 38°13' E 015°15'0 0.1
2018-Feb-16 10:57N 38°13' E 015°15'0 0.1
2018-Feb-16 10:27N 38°13' E 015°15'0 0.1
2018-Feb-16 09:57N 38°13' E 015°15'0 0.1
2018-Feb-16 09:27N 38°13' E 015°15'0 0.0
2018-Feb-16 08:57N 38°13' E 015°15'0 0.1
2018-Feb-16 08:27N 38°13' E 015°15'0 0.2
2018-Feb-16 07:57N 38°14' E 015°15'0 0.1
2018-Feb-16 07:27N 38°14' E 015°15'0 0.1
2018-Feb-16 06:57N 38°13' E 015°15'0 0.1
2018-Feb-16 06:27N 38°14' E 015°15'0 0.1
2018-Feb-16 05:57N 38°13' E 015°15'0 0.2
2018-Feb-16 05:27N 38°13' E 015°15'0 0.0
2018-Feb-16 04:51N 38°13' E 015°15'0 0.1
2018-Feb-16 04:27N 38°13' E 015°15'0 0.1
2018-Feb-16 03:56N 38°13' E 015°15'0 0.0
2018-Feb-16 03:26N 38°13' E 015°15'0 0.1
2018-Feb-16 02:56N 38°13' E 015°15'0 0.0
2018-Feb-16 02:26N 38°13' E 015°15'0 0.1
2018-Feb-16 01:56N 38°13' E 015°15'0 0.0
2018-Feb-16 01:26N 38°13' E 015°15'0 0.0
2018-Feb-16 00:56N 38°13' E 015°15'0 0.0
2018-Feb-16 00:26N 38°13' E 015°15'0 0.0
2018-Feb-15 23:56N 38°13' E 015°15'0 0.0
2018-Feb-15 23:26N 38°13' E 015°15'0 0.1
2018-Feb-15 22:56N 38°13' E 015°15'0 0.1
2018-Feb-15 22:26N 38°13' E 015°15'0 0.1
2018-Feb-15 21:56N 38°13' E 015°15'0 0.0
2018-Feb-15 21:26N 38°13' E 015°15'0 0.0
2018-Feb-15 20:56N 38°13' E 015°15'0 0.0
2018-Feb-15 20:26N 38°13' E 015°15'0 0.0
2018-Feb-15 19:56N 38°13' E 015°15'0 0.0
2018-Feb-15 19:26N 38°13' E 015°15'0 0.0
2018-Feb-15 18:56N 38°13' E 015°15'0 0.0
2018-Feb-15 18:26N 38°13' E 015°15'0 0.1
2018-Feb-15 17:56N 38°13' E 015°15'0 0.0
2018-Feb-15 17:26N 38°13' E 015°15'0 0.1
2018-Feb-15 16:56N 38°13' E 015°15'0 0.1
2018-Feb-15 16:26N 38°13' E 015°15'0 0.0
2018-Feb-15 15:56N 38°13' E 015°15'0 0.0
2018-Feb-15 15:26N 38°13' E 015°15'0 0.1
2018-Feb-15 14:56N 38°13' E 015°15'0 0.1
2018-Feb-15 14:26N 38°13' E 015°15'0 0.1
2018-Feb-15 13:56N 38°13' E 015°15'0 0.1
2018-Feb-15 13:20N 38°13' E 015°15'0 0.1
2018-Feb-15 12:56N 38°13' E 015°15'0 0.0
2018-Feb-15 12:26N 38°13' E 015°15'0 0.0
2018-Feb-15 11:56N 38°13' E 015°15'0 0.0
2018-Feb-15 11:26N 38°13' E 015°15'0 0.0
2018-Feb-15 10:56N 38°13' E 015°15'0 0.0
2018-Feb-15 10:26N 38°13' E 015°15'0 0.1
2018-Feb-15 09:56N 38°13' E 015°15'0 0.1
2018-Feb-15 09:26N 38°13' E 015°15'0 0.0
2018-Feb-15 08:56N 38°13' E 015°15'0 0.1
2018-Feb-15 08:26N 38°13' E 015°15'0 0.1
2018-Feb-15 07:56N 38°13' E 015°15'0 0.0
2018-Feb-15 07:26N 38°13' E 015°15'0 0.1
2018-Feb-15 06:56N 38°13' E 015°15'0 0.1
2018-Feb-15 06:20N 38°13' E 015°15'0 0.0
2018-Feb-15 05:56N 38°13' E 015°15'0 0.1
2018-Feb-15 05:26N 38°13' E 015°15'0 0.0
2018-Feb-15 04:56N 38°13' E 015°15'0 0.2
2018-Feb-15 04:26N 38°13' E 015°15'0 0.1
2018-Feb-15 03:56N 38°13' E 015°15'0 0.1
2018-Feb-15 03:26N 38°13' E 015°15'0 0.0
2018-Feb-15 02:56N 38°13' E 015°15'0 0.1
2018-Feb-15 02:26N 38°13' E 015°15'0 0.1
2018-Feb-15 01:56N 38°13' E 015°15'0 0.1
2018-Feb-15 01:26N 38°13' E 015°15'0 0.1
2018-Feb-15 00:50N 38°13' E 015°15'0 0.1
2018-Feb-15 00:26N 38°13' E 015°15'0 0.2
2018-Feb-14 23:56N 38°14' E 015°16'0 0.3
2018-Feb-14 23:26N 38°14' E 015°15'0 0.1
2018-Feb-14 22:56N 38°14' E 015°15'0 0.0
2018-Feb-14 22:26N 38°14' E 015°15'0 0.1
2018-Feb-14 21:56N 38°14' E 015°16'0 0.2
2018-Feb-14 21:26N 38°14' E 015°15'0 0.0
2018-Feb-14 20:56N 38°14' E 015°15'0 0.1
2018-Feb-14 20:26N 38°14' E 015°15'0 0.0
2018-Feb-14 19:56N 38°14' E 015°15'0 0.3
2018-Feb-14 19:26N 38°14' E 015°16'0 0.2
2018-Feb-14 18:56N 38°14' E 015°16'0 0.2
2018-Feb-14 18:26N 38°14' E 015°15'0 0.0
2018-Feb-14 17:56N 38°14' E 015°15'0 0.1
2018-Feb-14 17:26N 38°14' E 015°15'0 0.2
2018-Feb-14 16:56N 38°14' E 015°15'0 0.1
2018-Feb-14 16:25N 38°14' E 015°16'0 0.2
2018-Feb-14 15:55N 38°14' E 015°15'0 0.0
2018-Feb-14 15:25N 38°14' E 015°15'0 0.2
2018-Feb-14 14:55N 38°14' E 015°16'0 0.1
2018-Feb-14 14:13N 38°14' E 015°15'0 0.3
2018-Feb-14 13:55N 38°14' E 015°16'0 0.0
2018-Feb-14 13:19N 38°14' E 015°16'0 0.0
2018-Feb-14 12:55N 38°14' E 015°16'0 0.1
2018-Feb-14 12:25N 38°14' E 015°15'0 0.0
2018-Feb-14 11:55N 38°14' E 015°15'0 0.1
2018-Feb-14 11:25N 38°14' E 015°15'0 0.0
2018-Feb-14 10:55N 38°14' E 015°15'0 0.0
2018-Feb-14 10:25N 38°14' E 015°15'0 0.1
2018-Feb-14 09:55N 38°14' E 015°15'0 0.0
2018-Feb-14 09:25N 38°14' E 015°15'0 0.1
2018-Feb-14 08:55N 38°14' E 015°15'0 0.1
2018-Feb-14 08:25N 38°14' E 015°15'0 0.1
2018-Feb-14 07:55N 38°14' E 015°15'0 0.1
2018-Feb-14 07:25N 38°14' E 015°15'0 0.0
2018-Feb-14 06:55N 38°14' E 015°15'0 0.1
2018-Feb-14 06:25N 38°14' E 015°15'0 0.1
2018-Feb-14 05:55N 38°14' E 015°15'0 0.0
2018-Feb-14 05:25N 38°14' E 015°15'0 0.1
2018-Feb-14 04:55N 38°14' E 015°15'0 0.1
2018-Feb-14 04:25N 38°14' E 015°16'0 0.0
2018-Feb-14 03:55N 38°14' E 015°16'0 0.1
2018-Feb-14 03:25N 38°14' E 015°16'0 0.0
2018-Feb-14 02:55N 38°14' E 015°15'0 0.2
2018-Feb-14 02:25N 38°14' E 015°15'0 0.2
2018-Feb-14 01:55N 38°14' E 015°16'0 0.0
2018-Feb-14 01:25N 38°14' E 015°16'0 0.1
2018-Feb-14 00:55N 38°14' E 015°16'0 0.3
2018-Feb-14 00:25N 38°13' E 015°15'0 0.3
2018-Feb-13 23:55N 38°14' E 015°16'0 0.0
2018-Feb-13 23:25N 38°14' E 015°16'0 0.0
2018-Feb-13 22:55N 38°14' E 015°16'0 0.1
2018-Feb-13 22:25N 38°14' E 015°16'0 0.3
2018-Feb-13 21:55N 38°14' E 015°15'0 0.1
2018-Feb-13 21:25N 38°14' E 015°16'0 0.1
2018-Feb-13 20:55N 38°14' E 015°16'0 0.1
2018-Feb-13 20:30N 38°14' E 015°16'0 0.2
2018-Feb-13 20:00N 38°14' E 015°15'0 0.2
2018-Feb-13 19:30N 38°14' E 015°16'0 0.0
2018-Feb-13 19:00N 38°14' E 015°16'  
Track history (hours):
 
Tides and Currents Weather Stations Pressure Air Temp Water Temp Dewpoint Dewpoint Depression Visibility Wind Speed Wind Dir Waves Ship Positions

Alberta Amoretti

Last reported at 2018-Feb-23 18:56 UTC. Time now 2018-Feb-24 02:46 UTC.
Position N 40°29' E 014°10'.

Length 176 m; draft 6.8 m.

Type: Tanker. MMSI: 247593000.

Date/timePositionNaut miles runAvg speedWind from/ knotsBaromVisibWave heightAir tempDewpointWater temp
2018-Feb-23 18:56N 40°29' E 014°10'612.6
2018-Feb-23 18:30N 40°34' E 014°09'612.7
2018-Feb-23 18:00N 40°40' E 014°12'712.9
2018-Feb-23 17:30N 40°46' E 014°16'3 0.7
2018-Feb-23 12:29N 40°49' E 014°18'0 0.0
2018-Feb-23 11:59N 40°49' E 014°18'0 0.0
2018-Feb-23 11:29N 40°49' E 014°18'0 0.0
2018-Feb-23 10:59N 40°49' E 014°18'0 0.1
2018-Feb-23 10:29N 40°49' E 014°18'0 0.2
2018-Feb-23 09:56N 40°49' E 014°18'0 0.0
2018-Feb-23 09:23N 40°49' E 014°18'0 0.0
2018-Feb-23 08:53N 40°49' E 014°18'0 0.0
2018-Feb-23 07:32N 40°49' E 014°18'0 0.1
2018-Feb-23 07:23N 40°49' E 014°18'0 0.0
2018-Feb-23 06:59N 40°49' E 014°18'0 0.0
2018-Feb-23 06:23N 40°49' E 014°18'0 0.0
2018-Feb-23 05:59N 40°49' E 014°18'0 0.0
2018-Feb-23 05:26N 40°49' E 014°18'0 0.1
2018-Feb-23 04:56N 40°49' E 014°18'0 0.1
2018-Feb-23 04:26N 40°49' E 014°18'0 0.0
2018-Feb-23 03:59N 40°49' E 014°18'0 0.1
2018-Feb-23 03:29N 40°49' E 014°18'0 0.0
2018-Feb-23 02:59N 40°49' E 014°18'0 0.0
2018-Feb-23 02:29N 40°49' E 014°18'0 0.1
2018-Feb-23 01:59N 40°49' E 014°18'0 0.1
2018-Feb-23 01:29N 40°49' E 014°18'0 0.1
2018-Feb-23 00:59N 40°49' E 014°18'0 0.1
2018-Feb-23 00:28N 40°49' E 014°18'0 0.0
2018-Feb-22 23:58N 40°49' E 014°18'0 0.1
2018-Feb-22 23:28N 40°49' E 014°18'0 0.0
2018-Feb-22 22:58N 40°49' E 014°18'0 0.0
2018-Feb-22 22:28N 40°49' E 014°18'0 0.0
2018-Feb-22 21:58N 40°49' E 014°18'0 0.0
2018-Feb-22 21:22N 40°49' E 014°18'0 0.1
2018-Feb-22 20:58N 40°49' E 014°18'0 0.0
2018-Feb-22 20:22N 40°49' E 014°18'0 0.0
2018-Feb-22 19:58N 40°49' E 014°18'0 0.0
2018-Feb-22 19:13N 40°49' E 014°18'0 0.0
2018-Feb-22 18:58N 40°49' E 014°18'0 0.1
2018-Feb-22 18:28N 40°49' E 014°18'0 0.0
2018-Feb-22 17:58N 40°49' E 014°18'0 0.0
2018-Feb-22 17:25N 40°49' E 014°18'1 2.0
2018-Feb-22 17:00N 40°48' E 014°17'611.8
2018-Feb-22 16:30N 40°45' E 014°11'714.4
2018-Feb-22 16:00N 40°39' E 014°04'612.6
2018-Feb-22 15:30N 40°39' E 013°56'611.8
2018-Feb-22 15:00N 40°40' E 013°49'35 2.9
2018-Feb-22 02:56N 41°13' E 013°34'155 3.8
2018-Feb-20 09:31N 38°38' E 013°29'013.1
2018-Feb-20 09:30N 38°38' E 013°29'613.0
2018-Feb-20 09:00N 38°31' E 013°28'612.9
2018-Feb-20 08:30N 38°25' E 013°28'713.1
2018-Feb-20 08:00N 38°18' E 013°27'713.3
2018-Feb-20 07:30N 38°12' E 013°27'510.6
2018-Feb-20 07:00N 38°07' E 013°25'0 0.3
2018-Feb-20 06:28N 38°06' E 013°25'0 0.0
2018-Feb-20 05:58N 38°06' E 013°25'0 0.0
2018-Feb-20 05:28N 38°06' E 013°25'0 0.0
2018-Feb-20 04:58N 38°06' E 013°25'0 0.0
2018-Feb-20 04:28N 38°06' E 013°25'0 0.0
2018-Feb-20 03:58N 38°06' E 013°25'0 0.0
2018-Feb-20 03:28N 38°06' E 013°25'0 0.0
2018-Feb-20 02:58N 38°06' E 013°25'0 0.0
2018-Feb-20 02:28N 38°06' E 013°25'0 0.0
2018-Feb-20 01:58N 38°06' E 013°25'0 0.0
2018-Feb-20 01:28N 38°06' E 013°25'0 0.0
2018-Feb-20 00:58N 38°06' E 013°25'0 0.0
2018-Feb-20 00:28N 38°06' E 013°25'0 0.0
2018-Feb-19 23:58N 38°06' E 013°25'0 0.0
2018-Feb-19 23:28N 38°06' E 013°25'0 0.0
2018-Feb-19 22:58N 38°06' E 013°25'0 0.0
2018-Feb-19 22:28N 38°06' E 013°25'0 0.0
2018-Feb-19 21:58N 38°06' E 013°25'0 0.0
2018-Feb-19 21:25N 38°06' E 013°25'0 0.0
2018-Feb-19 20:58N 38°06' E 013°25'0 0.0
2018-Feb-19 20:28N 38°06' E 013°25'0 0.0
2018-Feb-19 19:58N 38°06' E 013°25'0 0.0
2018-Feb-19 19:28N 38°06' E 013°25'0 0.0
2018-Feb-19 18:58N 38°06' E 013°25'0 0.0
2018-Feb-19 18:28N 38°06' E 013°25'0 0.0
2018-Feb-19 17:58N 38°06' E 013°25'0 0.0
2018-Feb-19 17:28N 38°06' E 013°25'0 0.0
2018-Feb-19 16:58N 38°06' E 013°25'0 0.0
2018-Feb-19 16:28N 38°06' E 013°25'0 0.0
2018-Feb-19 15:58N 38°06' E 013°25'0 0.0
2018-Feb-19 15:28N 38°06' E 013°25'0 0.0
2018-Feb-19 14:58N 38°06' E 013°25'0 0.0
2018-Feb-19 14:28N 38°06' E 013°25'0 0.0
2018-Feb-19 13:58N 38°06' E 013°25'0 0.0
2018-Feb-19 13:28N 38°06' E 013°25'0 0.0
2018-Feb-19 13:01N 38°06' E 013°25'0 0.0
2018-Feb-19 12:31N 38°06' E 013°25'0 0.0
2018-Feb-19 12:00N 38°06' E 013°25'0 0.0
2018-Feb-19 11:30N 38°06' E 013°25'0 0.0
2018-Feb-19 11:00N 38°06' E 013°25'0 0.0
2018-Feb-19 10:30N 38°06' E 013°25'0 0.0
2018-Feb-19 10:00N 38°06' E 013°25'0 0.0
2018-Feb-19 09:30N 38°06' E 013°25'0 0.0
2018-Feb-19 09:00N 38°06' E 013°25'0 0.0
2018-Feb-19 08:24N 38°06' E 013°25'0 0.0
2018-Feb-19 08:00N 38°06' E 013°25'0 0.0
2018-Feb-19 07:30N 38°06' E 013°25'0 0.0
2018-Feb-19 07:01N 38°06' E 013°25'0 0.9
2018-Feb-19 06:30N 38°07' E 013°25'1 1.9
2018-Feb-19 06:00N 38°07' E 013°26'0 0.1
2018-Feb-19 05:28N 38°07' E 013°26'0 0.0
2018-Feb-19 04:58N 38°07' E 013°26'0 0.0
2018-Feb-19 04:28N 38°07' E 013°26'0 0.0
2018-Feb-19 03:58N 38°07' E 013°26'0 0.1
2018-Feb-19 03:28N 38°07' E 013°26'0 0.0
2018-Feb-19 02:58N 38°07' E 013°26'0 0.0
2018-Feb-19 02:28N 38°07' E 013°26'0 0.1
2018-Feb-19 01:58N 38°07' E 013°26'0 0.1
2018-Feb-19 01:28N 38°07' E 013°26'0 0.0
2018-Feb-19 00:58N 38°07' E 013°26'0 0.0
2018-Feb-19 00:28N 38°07' E 013°26'0 0.0
2018-Feb-18 23:58N 38°07' E 013°26'0 0.0
2018-Feb-18 23:28N 38°07' E 013°26'0 0.0
2018-Feb-18 22:58N 38°07' E 013°26'0 0.0
2018-Feb-18 22:28N 38°07' E 013°26'0 0.0
2018-Feb-18 21:58N 38°07' E 013°26'0 0.0
2018-Feb-18 21:28N 38°07' E 013°26'0 0.0
2018-Feb-18 20:58N 38°07' E 013°26'0 0.0
2018-Feb-18 20:28N 38°07' E 013°26'0 0.0
2018-Feb-18 19:58N 38°07' E 013°26'0 0.1
2018-Feb-18 19:28N 38°07' E 013°26'0 0.0
2018-Feb-18 18:58N 38°07' E 013°26'0 0.0
2018-Feb-18 18:28N 38°07' E 013°26'0 0.0
2018-Feb-18 17:58N 38°07' E 013°26'0 0.0
2018-Feb-18 17:28N 38°07' E 013°26'0 0.0
2018-Feb-18 16:58N 38°07' E 013°26'0 0.0
2018-Feb-18 16:28N 38°07' E 013°26'0 0.1
2018-Feb-18 15:52N 38°07' E 013°26'0 0.0
2018-Feb-18 15:28N 38°07' E 013°26'0 0.0
2018-Feb-18 14:58N 38°07' E 013°26'0 0.1
2018-Feb-18 14:28N 38°07' E 013°26'0 0.1
2018-Feb-18 13:58N 38°07' E 013°26'0 0.1
2018-Feb-18 13:28N 38°07' E 013°26'0 0.0
2018-Feb-18 12:58N 38°07' E 013°26'0 0.0
2018-Feb-18 12:28N 38°07' E 013°26'0 0.0
2018-Feb-18 11:58N 38°07' E 013°26'0 0.0
2018-Feb-18 11:28N 38°07' E 013°26'0 0.0
2018-Feb-18 10:58N 38°07' E 013°26'0 0.0
2018-Feb-18 10:28N 38°07' E 013°26'0 0.0
2018-Feb-18 09:58N 38°07' E 013°26'0 0.0
2018-Feb-18 09:28N 38°07' E 013°26'0 0.0
2018-Feb-18 08:58N 38°07' E 013°26'0 0.1
2018-Feb-18 08:28N 38°07' E 013°26'0 0.0
2018-Feb-18 07:58N 38°07' E 013°26'0 0.0
2018-Feb-18 07:28N 38°07' E 013°26'0 0.0
2018-Feb-18 06:58N 38°07' E 013°26'0 0.0
2018-Feb-18 06:30N 38°07' E 013°26'0 0.0
2018-Feb-18 06:00N 38°07' E 013°26'1 1.1
2018-Feb-18 05:30N 38°07' E 013°27'510.6
2018-Feb-18 05:00N 38°09' E 013°33'612.8
2018-Feb-18 04:30N 38°10' E 013°41'612.8
2018-Feb-18 04:00N 38°11' E 013°49'713.5
2018-Feb-18 03:30N 38°12' E 013°58'713.5
2018-Feb-18 03:01N 38°13' E 014°06'713.1
2018-Feb-18 02:29N 38°13' E 014°15'2413.0
2018-Feb-18 00:37N 38°16' E 014°46'413.1
2018-Feb-18 00:19N 38°16' E 014°51'413.1
2018-Feb-18 00:00N 38°16' E 014°56'713.0
2018-Feb-17 23:29N 38°17' E 015°04'612.9
2018-Feb-17 23:00N 38°18' E 015°12'510.4
2018-Feb-17 22:30N 38°14' E 015°17'2 3.1
2018-Feb-17 21:56N 38°13' E 015°16'0 0.0
2018-Feb-17 21:26N 38°13' E 015°16'0 0.0
2018-Feb-17 20:56N 38°13' E 015°16'0 0.0
2018-Feb-17 20:26N 38°13' E 015°16'0 0.0
2018-Feb-17 19:56N 38°13' E 015°16'0 0.0
2018-Feb-17 19:26N 38°13' E 015°16'0 0.0
2018-Feb-17 18:56N 38°13' E 015°16'0 0.0
2018-Feb-17 18:26N 38°13' E 015°16'0 0.0
2018-Feb-17 17:56N 38°13' E 015°16'0 0.0
2018-Feb-17 17:26N 38°13' E 015°16'0 0.0
2018-Feb-17 16:56N 38°13' E 015°16'0 0.0
2018-Feb-17 16:26N 38°13' E 015°16'0 0.0
2018-Feb-17 15:56N 38°13' E 015°16'0 0.0
2018-Feb-17 15:26N 38°13' E 015°16'0 0.0
2018-Feb-17 14:56N 38°13' E 015°16'0 0.0
2018-Feb-17 14:26N 38°13' E 015°16'0 0.0
2018-Feb-17 13:56N 38°13' E 015°16'0 0.0
2018-Feb-17 13:26N 38°13' E 015°16'0 0.0
2018-Feb-17 12:56N 38°13' E 015°16'0 0.0
2018-Feb-17 12:26N 38°13' E 015°16'0 0.0
2018-Feb-17 11:56N 38°13' E 015°16'0 0.0
2018-Feb-17 11:26N 38°13' E 015°16'0 0.0
2018-Feb-17 10:56N 38°13' E 015°16'0 0.0
2018-Feb-17 10:26N 38°13' E 015°16'0 0.0
2018-Feb-17 09:55N 38°13' E 015°16'0 0.0
2018-Feb-17 09:25N 38°13' E 015°16'0 0.0
2018-Feb-17 08:55N 38°13' E 015°16'0 0.0
2018-Feb-17 08:25N 38°13' E 015°16'0 0.0
2018-Feb-17 07:55N 38°13' E 015°16'0 0.0
2018-Feb-17 07:25N 38°13' E 015°16'0 0.0
2018-Feb-17 06:55N 38°13' E 015°16'0 0.0
2018-Feb-17 06:25N 38°13' E 015°16'0 0.0
2018-Feb-17 05:55N 38°13' E 015°16'0 0.0
2018-Feb-17 05:25N 38°13' E 015°16'0 0.0
2018-Feb-17 04:55N 38°13' E 015°16'0 0.0
2018-Feb-17 04:25N 38°13' E 015°16'0 0.0
2018-Feb-17 03:55N 38°13' E 015°16'0 0.0
2018-Feb-17 03:25N 38°13' E 015°16'0 0.0
2018-Feb-17 02:55N 38°13' E 015°16'0 0.0
2018-Feb-17 02:25N 38°13' E 015°16'0 0.0
2018-Feb-17 01:55N 38°13' E 015°16'0 0.0
2018-Feb-17 01:25N 38°13' E 015°16'0 0.0
2018-Feb-17 00:55N 38°13' E 015°16'0 0.0
2018-Feb-17 00:25N 38°13' E 015°16'0 0.0
2018-Feb-16 23:55N 38°13' E 015°16'0 0.0
2018-Feb-16 23:25N 38°13' E 015°16'0 0.0
2018-Feb-16 22:55N 38°13' E 015°16'0 0.0
2018-Feb-16 22:25N 38°13' E 015°16'0 0.0
2018-Feb-16 21:55N 38°13' E 015°16'0 0.0
2018-Feb-16 21:25N 38°13' E 015°16'0 0.0
2018-Feb-16 20:55N 38°13' E 015°16'0 0.0
2018-Feb-16 20:25N 38°13' E 015°16'0 0.0
2018-Feb-16 19:55N 38°13' E 015°16'0 0.0
2018-Feb-16 19:25N 38°13' E 015°16'0 0.0
2018-Feb-16 18:55N 38°13' E 015°16'0 0.0
2018-Feb-16 18:25N 38°13' E 015°16'0 0.0
2018-Feb-16 17:55N 38°13' E 015°16'0 0.0
2018-Feb-16 17:25N 38°13' E 015°16'0 0.0
2018-Feb-16 16:55N 38°13' E 015°16'0 0.0
2018-Feb-16 16:25N 38°13' E 015°16'0 0.0
2018-Feb-16 15:55N 38°13' E 015°16'0 0.0
2018-Feb-16 15:25N 38°13' E 015°16'0 0.1
2018-Feb-16 15:00N 38°13' E 015°16'1 1.6
2018-Feb-16 14:27N 38°13' E 015°15'0 0.0
2018-Feb-16 13:57N 38°13' E 015°15'0 0.0
2018-Feb-16 13:27N 38°13' E 015°15'0 0.0
2018-Feb-16 12:57N 38°13' E 015°15'0 0.0
2018-Feb-16 12:27N 38°13' E 015°15'0 0.0
2018-Feb-16 11:57N 38°13' E 015°15'0 0.1
2018-Feb-16 11:27N 38°13' E 015°15'0 0.1
2018-Feb-16 10:57N 38°13' E 015°15'0 0.1
2018-Feb-16 10:27N 38°13' E 015°15'0 0.1
2018-Feb-16 09:57N 38°13' E 015°15'0 0.1
2018-Feb-16 09:27N 38°13' E 015°15'0 0.0
2018-Feb-16 08:57N 38°13' E 015°15'0 0.1
2018-Feb-16 08:27N 38°13' E 015°15'0 0.2
2018-Feb-16 07:57N 38°14' E 015°15'0 0.1
2018-Feb-16 07:27N 38°14' E 015°15'0 0.1
2018-Feb-16 06:57N 38°13' E 015°15'0 0.1
2018-Feb-16 06:27N 38°14' E 015°15'0 0.1
2018-Feb-16 05:57N 38°13' E 015°15'0 0.2
2018-Feb-16 05:27N 38°13' E 015°15'0 0.0
2018-Feb-16 04:51N 38°13' E 015°15'0 0.1
2018-Feb-16 04:27N 38°13' E 015°15'0 0.1
2018-Feb-16 03:56N 38°13' E 015°15'0 0.0
2018-Feb-16 03:26N 38°13' E 015°15'0 0.1
2018-Feb-16 02:56N 38°13' E 015°15'0 0.0
2018-Feb-16 02:26N 38°13' E 015°15'0 0.1
2018-Feb-16 01:56N 38°13' E 015°15'0 0.0
2018-Feb-16 01:26N 38°13' E 015°15'0 0.0
2018-Feb-16 00:56N 38°13' E 015°15'0 0.0
2018-Feb-16 00:26N 38°13' E 015°15'0 0.0
2018-Feb-15 23:56N 38°13' E 015°15'0 0.0
2018-Feb-15 23:26N 38°13' E 015°15'0 0.1
2018-Feb-15 22:56N 38°13' E 015°15'0 0.1
2018-Feb-15 22:26N 38°13' E 015°15'0 0.1
2018-Feb-15 21:56N 38°13' E 015°15'0 0.0
2018-Feb-15 21:26N 38°13' E 015°15'0 0.0
2018-Feb-15 20:56N 38°13' E 015°15'0 0.0
2018-Feb-15 20:26N 38°13' E 015°15'0 0.0
2018-Feb-15 19:56N 38°13' E 015°15'0 0.0
2018-Feb-15 19:26N 38°13' E 015°15'0 0.0
2018-Feb-15 18:56N 38°13' E 015°15'0 0.0
2018-Feb-15 18:26N 38°13' E 015°15'0 0.1
2018-Feb-15 17:56N 38°13' E 015°15'0 0.0
2018-Feb-15 17:26N 38°13' E 015°15'0 0.1
2018-Feb-15 16:56N 38°13' E 015°15'0 0.1
2018-Feb-15 16:26N 38°13' E 015°15'0 0.0
2018-Feb-15 15:56N 38°13' E 015°15'0 0.0
2018-Feb-15 15:26N 38°13' E 015°15'0 0.1
2018-Feb-15 14:56N 38°13' E 015°15'0 0.1
2018-Feb-15 14:26N 38°13' E 015°15'0 0.1
2018-Feb-15 13:56N 38°13' E 015°15'0 0.1
2018-Feb-15 13:20N 38°13' E 015°15'0 0.1
2018-Feb-15 12:56N 38°13' E 015°15'0 0.0
2018-Feb-15 12:26N 38°13' E 015°15'0 0.0
2018-Feb-15 11:56N 38°13' E 015°15'0 0.0
2018-Feb-15 11:26N 38°13' E 015°15'0 0.0
2018-Feb-15 10:56N 38°13' E 015°15'0 0.0
2018-Feb-15 10:26N 38°13' E 015°15'0 0.1
2018-Feb-15 09:56N 38°13' E 015°15'0 0.1
2018-Feb-15 09:26N 38°13' E 015°15'0 0.0
2018-Feb-15 08:56N 38°13' E 015°15'0 0.1
2018-Feb-15 08:26N 38°13' E 015°15'0 0.1
2018-Feb-15 07:56N 38°13' E 015°15'0 0.0
2018-Feb-15 07:26N 38°13' E 015°15'0 0.1
2018-Feb-15 06:56N 38°13' E 015°15'0 0.1
2018-Feb-15 06:20N 38°13' E 015°15'0 0.0
2018-Feb-15 05:56N 38°13' E 015°15'0 0.1
2018-Feb-15 05:26N 38°13' E 015°15'0 0.0
2018-Feb-15 04:56N 38°13' E 015°15'0 0.2
2018-Feb-15 04:26N 38°13' E 015°15'0 0.1
2018-Feb-15 03:56N 38°13' E 015°15'0 0.1
2018-Feb-15 03:26N 38°13' E 015°15'0 0.0
2018-Feb-15 02:56N 38°13' E 015°15'0 0.1
2018-Feb-15 02:26N 38°13' E 015°15'0 0.1
2018-Feb-15 01:56N 38°13' E 015°15'0 0.1
2018-Feb-15 01:26N 38°13' E 015°15'0 0.1
2018-Feb-15 00:50N 38°13' E 015°15'0 0.1
2018-Feb-15 00:26N 38°13' E 015°15'0 0.2
2018-Feb-14 23:56N 38°14' E 015°16'0 0.3
2018-Feb-14 23:26N 38°14' E 015°15'0 0.1
2018-Feb-14 22:56N 38°14' E 015°15'0 0.0
2018-Feb-14 22:26N 38°14' E 015°15'0 0.1
2018-Feb-14 21:56N 38°14' E 015°16'0 0.2
2018-Feb-14 21:26N 38°14' E 015°15'0 0.0
2018-Feb-14 20:56N 38°14' E 015°15'0 0.1
2018-Feb-14 20:26N 38°14' E 015°15'0 0.0
2018-Feb-14 19:56N 38°14' E 015°15'0 0.3
2018-Feb-14 19:26N 38°14' E 015°16'0 0.2
2018-Feb-14 18:56N 38°14' E 015°16'0 0.2
2018-Feb-14 18:26N 38°14' E 015°15'0 0.0
2018-Feb-14 17:56N 38°14' E 015°15'0 0.1
2018-Feb-14 17:26N 38°14' E 015°15'0 0.2
2018-Feb-14 16:56N 38°14' E 015°15'0 0.1
2018-Feb-14 16:25N 38°14' E 015°16'0 0.2
2018-Feb-14 15:55N 38°14' E 015°15'0 0.0
2018-Feb-14 15:25N 38°14' E 015°15'0 0.2
2018-Feb-14 14:55N 38°14' E 015°16'0 0.1
2018-Feb-14 14:13N 38°14' E 015°15'0 0.3
2018-Feb-14 13:55N 38°14' E 015°16'0 0.0
2018-Feb-14 13:19N 38°14' E 015°16'0 0.0
2018-Feb-14 12:55N 38°14' E 015°16'0 0.1
2018-Feb-14 12:25N 38°14' E 015°15'0 0.0
2018-Feb-14 11:55N 38°14' E 015°15'0 0.1
2018-Feb-14 11:25N 38°14' E 015°15'0 0.0
2018-Feb-14 10:55N 38°14' E 015°15'0 0.0
2018-Feb-14 10:25N 38°14' E 015°15'0 0.1
2018-Feb-14 09:55N 38°14' E 015°15'0 0.0
2018-Feb-14 09:25N 38°14' E 015°15'0 0.1
2018-Feb-14 08:55N 38°14' E 015°15'0 0.1
2018-Feb-14 08:25N 38°14' E 015°15'0 0.1
2018-Feb-14 07:55N 38°14' E 015°15'0 0.1
2018-Feb-14 07:25N 38°14' E 015°15'0 0.0
2018-Feb-14 06:55N 38°14' E 015°15'0 0.1
2018-Feb-14 06:25N 38°14' E 015°15'0 0.1
2018-Feb-14 05:55N 38°14' E 015°15'0 0.0
2018-Feb-14 05:25N 38°14' E 015°15'0 0.1
2018-Feb-14 04:55N 38°14' E 015°15'0 0.1
2018-Feb-14 04:25N 38°14' E 015°16'0 0.0
2018-Feb-14 03:55N 38°14' E 015°16'0 0.1
2018-Feb-14 03:25N 38°14' E 015°16'0 0.0
2018-Feb-14 02:55N 38°14' E 015°15'0 0.2
2018-Feb-14 02:25N 38°14' E 015°15'0 0.2
2018-Feb-14 01:55N 38°14' E 015°16'0 0.0
2018-Feb-14 01:25N 38°14' E 015°16'0 0.1
2018-Feb-14 00:55N 38°14' E 015°16'0 0.3
2018-Feb-14 00:25N 38°13' E 015°15'0 0.3
2018-Feb-13 23:55N 38°14' E 015°16'0 0.0
2018-Feb-13 23:25N 38°14' E 015°16'0 0.0
2018-Feb-13 22:55N 38°14' E 015°16'0 0.1
2018-Feb-13 22:25N 38°14' E 015°16'0 0.3
2018-Feb-13 21:55N 38°14' E 015°15'0 0.1
2018-Feb-13 21:25N 38°14' E 015°16'0 0.1
2018-Feb-13 20:55N 38°14' E 015°16'0 0.1
2018-Feb-13 20:30N 38°14' E 015°16'0 0.2
2018-Feb-13 20:00N 38°14' E 015°15'0 0.2
2018-Feb-13 19:30N 38°14' E 015°16'0 0.0
2018-Feb-13 19:00N 38°14' E 015°16'  

Dump ship's entire track history